• Join FlightAware (Why Join?)
  • Login
  • US Flag 
05:24AM EDT


 

Airport Tracker/Info


-or-


 

Live Flight TrackerFlight Track Log ✈ CTL17 ✈ 18-Jun-2013 ✈ KBKL - KPTK

Flight Track Log - Related Links

Times and Time Zones

All times are in EDT time to prevent confusion due to time zone crossing. See the CTL17 flight status page for this flight to view local times or setup timezone preferences in your user account.

Time Position Orientation Groundspeed Altitude Reporting Facility
EDT Latitude Longitude Course Direction KTS MPH feet Rate Location/Type
06:48PM 41.5792 -81.7017 344° North 138 159 2,300  Level Cleveland Center
06:49PM 41.6083 -81.7244 330° Northwest 147 169 2,900 660 Climbing Cleveland Center
06:50PM 41.6369 -81.7806 304° West 158 182 3,700 660 Climbing Cleveland Center
06:51PM 41.6447 -81.8225 284° West 157 181 4,200 540 Climbing Cleveland Center
06:52PM 41.6608 -81.8783 291° West 154 177 4,700 540 Climbing Cleveland Center
06:53PM 41.6747 -81.9425 286° West 154 177 5,400 540 Climbing Cleveland Center
06:54PM 41.6886 -81.9956 289° West 152 175 5,900 240 Climbing Cleveland Center
06:55PM 41.7044 -82.0544 290° West 162 186 6,000  Climbing Cleveland Center
06:56PM 41.7164 -82.1131 285° West 169 194 6,000  Level Cleveland Center
06:57PM 41.7322 -82.1719 290° West 166 191 6,000  Level Cleveland Center
06:58PM 41.7478 -82.2364 288° West 164 189 6,000  Level Cleveland Center
06:59PM 41.7597 -82.2894 287° West 164 189 6,000  Level Cleveland Center
07:00PM 41.7714 -82.3456 286° West 164 189 6,000  Level Cleveland Center
07:01PM 41.7869 -82.4072 289° West 164 189 6,000  Level Cleveland Center
07:02PM 41.8069 -82.4692 293° West 164 189 6,000  Level Cleveland Center
07:04PM 41.8264 -82.5506 288° West 162 186 6,000  Level Cleveland Center
07:05PM 41.8419 -82.6094 290° West 162 186 6,000  Level Cleveland Center
07:06PM 41.8683 -82.6550 308° West 161 185 6,000  Level Cleveland Center
07:07PM 41.9075 -82.6814 333° Northwest 161 185 6,000  Level Cleveland Center
07:08PM 41.9486 -82.7106 332° Northwest 163 188 6,000  Level Cleveland Center
07:09PM 41.9875 -82.7397 331° Northwest 160 184 6,000  Level Cleveland Center
07:10PM 42.0308 -82.7719 331° Northwest 162 186 6,000  Level Cleveland Center
07:11PM 42.0700 -82.7986 333° Northwest 164 189 6,000  Level Cleveland Center
07:12PM 42.1089 -82.8250 333° Northwest 161 185 6,000  Level Cleveland Center
07:13PM 42.1519 -82.8603 329° Northwest 155 178 6,000 -60 Level Cleveland Center
07:14PM 42.1911 -82.8869 333° Northwest 158 182 5,900  Descending Cleveland Center
07:15PM 42.2303 -82.9133 333° Northwest 160 184 6,000 -360 Climbing Cleveland Center
07:16PM 42.2711 -82.9486 327° Northwest 178 205 5,200 -720 Descending Cleveland Center
07:17PM 42.3206 -82.9786 336° Northwest 182 209 4,600 -540 Descending Cleveland Center
07:18PM 42.3678 -83.0169 329° Northwest 179 206 4,100 -360 Descending Cleveland Center
07:19PM 42.4089 -83.0439 334° Northwest 162 186 3,900 -60 Descending Cleveland Center
07:20PM 42.4458 -83.0706 332° Northwest 163 188 4,000  Climbing Cleveland Center
07:21PM 42.4867 -83.1031 330° Northwest 160 184 3,900 -60 Descending Cleveland Center
07:22PM 42.5278 -83.1358 330° Northwest 165 190 3,900  Level Cleveland Center
07:23PM 42.5475 -83.1789 302° West 169 194 4,000 -300 Climbing Cleveland Center
07:24PM 42.5628 -83.2417 288° West 180 207 3,300 -660 Descending Cleveland Center
07:25PM 42.5908 -83.2992 304° West 178 205 2,700 -660 Descending Cleveland Center
07:26PM 42.6103 -83.3481 298° West 174 200 2,100 -420 Descending Cleveland Center
07:27PM 42.6342 -83.4025 301° West 159 183 1,900 -240 Descending Cleveland Center
07:28PM 42.6472 -83.4597 287° West 121 139 1,600 -300 Descending Cleveland Center
07:30PM 42.6500 -83.4167 304° West  Level FlightAware Approximate
07:37PM 42.6656 -83.4205 304° West  Level Estimated
07:38PM 42.6656 -83.4205 304° West  Level Estimated